sensor_id;sensor_type;location;lat;lon;timestamp;pressure;altitude;pressure_sealevel;temperature;humidity
75692;BME280;64307;52.508;6.090;2023-04-21T00:00:43;101676.00;;;9.14;93.08
75692;BME280;64307;52.508;6.090;2023-04-21T00:03:08;101676.16;;;9.21;92.84
75692;BME280;64307;52.508;6.090;2023-04-21T00:05:33;101663.84;;;9.22;93.08
75692;BME280;64307;52.508;6.090;2023-04-21T00:07:59;101663.94;;;9.25;92.82
75692;BME280;64307;52.508;6.090;2023-04-21T00:10:24;101667.97;;;9.28;93.72
75692;BME280;64307;52.508;6.090;2023-04-21T00:12:49;101644.06;;;9.23;93.95
75692;BME280;64307;52.508;6.090;2023-04-21T00:15:15;101650.09;;;9.29;93.29
75692;BME280;64307;52.508;6.090;2023-04-21T00:17:40;101649.50;;;9.39;94.04
75692;BME280;64307;52.508;6.090;2023-04-21T00:20:06;101638.25;;;9.32;94.45
75692;BME280;64307;52.508;6.090;2023-04-21T00:22:33;101633.91;;;9.34;94.80
75692;BME280;64307;52.508;6.090;2023-04-21T00:24:59;101635.53;;;9.35;94.87
75692;BME280;64307;52.508;6.090;2023-04-21T00:27:24;101625.78;;;9.45;94.22
75692;BME280;64307;52.508;6.090;2023-04-21T00:29:50;101618.53;;;9.40;94.43
75692;BME280;64307;52.508;6.090;2023-04-21T00:32:15;101597.88;;;9.38;93.76
75692;BME280;64307;52.508;6.090;2023-04-21T00:34:40;101597.50;;;9.39;94.51
75692;BME280;64307;52.508;6.090;2023-04-21T00:37:06;101616.72;;;9.48;94.27
75692;BME280;64307;52.508;6.090;2023-04-21T00:39:31;101611.88;;;9.45;94.24
75692;BME280;64307;52.508;6.090;2023-04-21T00:41:56;101608.13;;;9.56;93.40
75692;BME280;64307;52.508;6.090;2023-04-21T00:44:21;101559.19;;;9.29;93.78
75692;BME280;64307;52.508;6.090;2023-04-21T00:46:47;101588.16;;;9.51;94.36
75692;BME280;64307;52.508;6.090;2023-04-21T00:49:13;101576.16;;;9.47;93.89
75692;BME280;64307;52.508;6.090;2023-04-21T00:51:38;101579.38;;;9.49;93.99
75692;BME280;64307;52.508;6.090;2023-04-21T00:54:07;101587.66;;;9.45;94.37
75692;BME280;64307;52.508;6.090;2023-04-21T00:56:34;101580.44;;;9.41;94.07
75692;BME280;64307;52.508;6.090;2023-04-21T00:59:00;101580.88;;;9.43;94.02
75692;BME280;64307;52.508;6.090;2023-04-21T01:01:30;101566.84;;;9.36;94.49
75692;BME280;64307;52.508;6.090;2023-04-21T01:03:57;101574.56;;;9.46;94.18
75692;BME280;64307;52.508;6.090;2023-04-21T01:06:23;101578.75;;;9.36;94.34
75692;BME280;64307;52.508;6.090;2023-04-21T01:08:49;101562.59;;;9.42;94.02
75692;BME280;64307;52.508;6.090;2023-04-21T01:11:16;101561.28;;;9.36;94.53
75692;BME280;64307;52.508;6.090;2023-04-21T01:13:41;101560.78;;;9.30;94.25
75692;BME280;64307;52.508;6.090;2023-04-21T01:16:06;101565.63;;;9.33;94.68
75692;BME280;64307;52.508;6.090;2023-04-21T01:18:32;101557.13;;;9.26;94.44
75692;BME280;64307;52.508;6.090;2023-04-21T01:20:58;101571.03;;;9.26;95.05
75692;BME280;64307;52.508;6.090;2023-04-21T01:23:23;101561.97;;;9.29;94.76
75692;BME280;64307;52.508;6.090;2023-04-21T01:25:52;101555.84;;;9.20;94.52
75692;BME280;64307;52.508;6.090;2023-04-21T01:28:24;101556.50;;;9.14;94.97
75692;BME280;64307;52.508;6.090;2023-04-21T01:30:50;101556.09;;;9.12;95.29
75692;BME280;64307;52.508;6.090;2023-04-21T01:33:16;101553.31;;;9.12;95.01
75692;BME280;64307;52.508;6.090;2023-04-21T01:35:42;101547.69;;;9.08;94.95
75692;BME280;64307;52.508;6.090;2023-04-21T01:38:07;101549.56;;;9.00;95.27
75692;BME280;64307;52.508;6.090;2023-04-21T01:40:33;101548.69;;;8.96;95.89
75692;BME280;64307;52.508;6.090;2023-04-21T01:42:59;101559.56;;;9.05;95.50
75692;BME280;64307;52.508;6.090;2023-04-21T01:45:24;101557.50;;;9.02;95.38
75692;BME280;64307;52.508;6.090;2023-04-21T01:47:50;101549.91;;;8.99;95.78
75692;BME280;64307;52.508;6.090;2023-04-21T01:50:15;101561.09;;;9.02;95.38
75692;BME280;64307;52.508;6.090;2023-04-21T01:52:40;101562.69;;;9.03;95.38
75692;BME280;64307;52.508;6.090;2023-04-21T01:55:06;101563.94;;;9.06;95.32
75692;BME280;64307;52.508;6.090;2023-04-21T01:57:31;101552.75;;;9.02;95.19
75692;BME280;64307;52.508;6.090;2023-04-21T01:59:56;101557.94;;;9.04;95.58
75692;BME280;64307;52.508;6.090;2023-04-21T02:02:24;101571.53;;;9.09;95.09
75692;BME280;64307;52.508;6.090;2023-04-21T02:04:50;101549.13;;;8.98;95.49
75692;BME280;64307;52.508;6.090;2023-04-21T02:07:15;101560.78;;;9.07;95.02
75692;BME280;64307;52.508;6.090;2023-04-21T02:09:40;101573.63;;;9.16;94.96
75692;BME280;64307;52.508;6.090;2023-04-21T02:12:06;101572.91;;;9.19;95.26
75692;BME280;64307;52.508;6.090;2023-04-21T02:14:32;101573.34;;;9.21;95.17
75692;BME280;64307;52.508;6.090;2023-04-21T02:16:57;101575.97;;;9.14;95.09
75692;BME280;64307;52.508;6.090;2023-04-21T02:19:23;101574.00;;;9.14;94.98
75692;BME280;64307;52.508;6.090;2023-04-21T02:21:49;101577.34;;;9.23;95.45
75692;BME280;64307;52.508;6.090;2023-04-21T02:24:15;101562.44;;;9.12;95.59
75692;BME280;64307;52.508;6.090;2023-04-21T02:26:40;101569.97;;;9.34;94.81
75692;BME280;64307;52.508;6.090;2023-04-21T02:29:05;101571.34;;;9.21;94.90
75692;BME280;64307;52.508;6.090;2023-04-21T02:31:31;101562.03;;;9.33;94.80
75692;BME280;64307;52.508;6.090;2023-04-21T02:33:57;101563.56;;;9.30;94.27
75692;BME280;64307;52.508;6.090;2023-04-21T02:36:23;101566.97;;;9.43;94.27
75692;BME280;64307;52.508;6.090;2023-04-21T02:38:48;101563.75;;;9.41;94.08
75692;BME280;64307;52.508;6.090;2023-04-21T02:41:13;101569.50;;;9.51;94.04
75692;BME280;64307;52.508;6.090;2023-04-21T02:43:38;101565.00;;;9.43;94.33
75692;BME280;64307;52.508;6.090;2023-04-21T02:46:05;101559.88;;;9.45;94.30
75692;BME280;64307;52.508;6.090;2023-04-21T02:48:31;101553.88;;;9.43;94.43
75692;BME280;64307;52.508;6.090;2023-04-21T02:50:57;101555.59;;;9.51;93.90
75692;BME280;64307;52.508;6.090;2023-04-21T02:53:22;101558.81;;;9.53;93.83
75692;BME280;64307;52.508;6.090;2023-04-21T02:55:48;101562.88;;;9.59;94.12
75692;BME280;64307;52.508;6.090;2023-04-21T02:58:13;101561.28;;;9.58;93.70
75692;BME280;64307;52.508;6.090;2023-04-21T03:00:42;101565.78;;;9.66;93.57
75692;BME280;64307;52.508;6.090;2023-04-21T03:03:07;101560.41;;;9.54;93.87
75692;BME280;64307;52.508;6.090;2023-04-21T03:05:33;101569.66;;;9.62;93.59
75692;BME280;64307;52.508;6.090;2023-04-21T03:07:58;101565.81;;;9.70;93.07
75692;BME280;64307;52.508;6.090;2023-04-21T03:10:23;101559.78;;;9.64;93.00
75692;BME280;64307;52.508;6.090;2023-04-21T03:12:49;101565.56;;;9.78;92.12
75692;BME280;64307;52.508;6.090;2023-04-21T03:15:14;101562.19;;;9.66;92.85
75692;BME280;64307;52.508;6.090;2023-04-21T03:17:41;101566.25;;;9.72;92.41
75692;BME280;64307;52.508;6.090;2023-04-21T03:20:07;101571.59;;;9.84;92.32
75692;BME280;64307;52.508;6.090;2023-04-21T03:22:34;101568.81;;;9.84;92.00
75692;BME280;64307;52.508;6.090;2023-04-21T03:24:59;101578.47;;;9.90;92.45
75692;BME280;64307;52.508;6.090;2023-04-21T03:27:25;101582.34;;;9.85;92.74
75692;BME280;64307;52.508;6.090;2023-04-21T03:29:50;101554.69;;;9.70;92.71
75692;BME280;64307;52.508;6.090;2023-04-21T03:32:15;101569.59;;;9.81;92.73
75692;BME280;64307;52.508;6.090;2023-04-21T03:34:41;101574.38;;;9.84;92.82
75692;BME280;64307;52.508;6.090;2023-04-21T03:37:06;101563.22;;;9.80;92.53
75692;BME280;64307;52.508;6.090;2023-04-21T03:39:31;101558.47;;;9.81;92.29
75692;BME280;64307;52.508;6.090;2023-04-21T03:41:57;101571.59;;;9.84;92.71
75692;BME280;64307;52.508;6.090;2023-04-21T03:44:24;101575.25;;;9.88;92.60
75692;BME280;64307;52.508;6.090;2023-04-21T03:46:51;101570.31;;;9.78;92.70
75692;BME280;64307;52.508;6.090;2023-04-21T03:49:17;101574.00;;;9.85;92.61
75692;BME280;64307;52.508;6.090;2023-04-21T03:51:43;101571.19;;;9.82;92.92
75692;BME280;64307;52.508;6.090;2023-04-21T03:54:11;101562.22;;;9.96;91.81
75692;BME280;64307;52.508;6.090;2023-04-21T03:56:37;101566.16;;;9.91;91.93
75692;BME280;64307;52.508;6.090;2023-04-21T03:59:02;101572.50;;;9.91;92.10
75692;BME280;64307;52.508;6.090;2023-04-21T04:01:28;101577.59;;;9.86;93.06
75692;BME280;64307;52.508;6.090;2023-04-21T04:03:53;101558.78;;;9.76;93.03
75692;BME280;64307;52.508;6.090;2023-04-21T04:06:19;101575.25;;;9.88;92.53
75692;BME280;64307;52.508;6.090;2023-04-21T04:08:44;101578.88;;;9.92;92.50
75692;BME280;64307;52.508;6.090;2023-04-21T04:11:09;101574.94;;;9.93;92.16
75692;BME280;64307;52.508;6.090;2023-04-21T04:13:34;101570.50;;;9.88;92.45
75692;BME280;64307;52.508;6.090;2023-04-21T04:16:00;101572.88;;;9.90;92.70
75692;BME280;64307;52.508;6.090;2023-04-21T04:18:25;101569.88;;;10.02;92.07
75692;BME280;64307;52.508;6.090;2023-04-21T04:20:50;101556.47;;;9.81;92.22
75692;BME280;64307;52.508;6.090;2023-04-21T04:23:16;101554.25;;;9.94;91.93
75692;BME280;64307;52.508;6.090;2023-04-21T04:25:41;101551.19;;;9.99;91.66
75692;BME280;64307;52.508;6.090;2023-04-21T04:28:07;101551.44;;;9.90;91.79
75692;BME280;64307;52.508;6.090;2023-04-21T04:30:33;101558.25;;;9.93;91.82
75692;BME280;64307;52.508;6.090;2023-04-21T04:32:59;101564.75;;;10.04;91.93
75692;BME280;64307;52.508;6.090;2023-04-21T04:35:24;101551.59;;;10.01;91.42
75692;BME280;64307;52.508;6.090;2023-04-21T04:37:49;101554.69;;;9.96;92.12
75692;BME280;64307;52.508;6.090;2023-04-21T04:40:17;101555.38;;;9.89;92.69
75692;BME280;64307;52.508;6.090;2023-04-21T04:42:43;101556.78;;;10.03;91.26
75692;BME280;64307;52.508;6.090;2023-04-21T04:45:10;101551.53;;;9.98;91.42
75692;BME280;64307;52.508;6.090;2023-04-21T04:47:36;101561.16;;;10.04;91.61
75692;BME280;64307;52.508;6.090;2023-04-21T04:50:03;101564.66;;;9.97;91.95
75692;BME280;64307;52.508;6.090;2023-04-21T04:52:28;101568.72;;;10.03;91.58
75692;BME280;64307;52.508;6.090;2023-04-21T04:54:54;101568.34;;;10.05;91.70
75692;BME280;64307;52.508;6.090;2023-04-21T04:57:20;101569.50;;;10.04;91.24
75692;BME280;64307;52.508;6.090;2023-04-21T04:59:46;101572.28;;;10.04;91.57
75692;BME280;64307;52.508;6.090;2023-04-21T05:02:11;101570.31;;;10.04;90.95
75692;BME280;64307;52.508;6.090;2023-04-21T05:04:37;101579.50;;;10.08;91.14
75692;BME280;64307;52.508;6.090;2023-04-21T05:07:02;101577.19;;;10.10;90.95
75692;BME280;64307;52.508;6.090;2023-04-21T05:09:30;101578.66;;;10.04;91.46
75692;BME280;64307;52.508;6.090;2023-04-21T05:11:55;101583.88;;;10.06;91.88
75692;BME280;64307;52.508;6.090;2023-04-21T05:14:20;101565.88;;;10.00;91.69
75692;BME280;64307;52.508;6.090;2023-04-21T05:16:45;101579.34;;;9.98;91.96
75692;BME280;64307;52.508;6.090;2023-04-21T05:19:12;101582.25;;;10.05;91.66
75692;BME280;64307;52.508;6.090;2023-04-21T05:21:37;101588.19;;;10.03;91.96
75692;BME280;64307;52.508;6.090;2023-04-21T05:24:03;101585.00;;;10.01;92.56
75692;BME280;64307;52.508;6.090;2023-04-21T05:26:28;101582.22;;;10.01;91.99
75692;BME280;64307;52.508;6.090;2023-04-21T05:28:54;101580.59;;;10.00;92.15
75692;BME280;64307;52.508;6.090;2023-04-21T05:31:20;101580.81;;;10.14;90.61
75692;BME280;64307;52.508;6.090;2023-04-21T05:33:46;101582.81;;;10.14;91.28
75692;BME280;64307;52.508;6.090;2023-04-21T05:36:11;101566.88;;;10.11;91.06
75692;BME280;64307;52.508;6.090;2023-04-21T05:38:37;101578.88;;;10.18;91.06
75692;BME280;64307;52.508;6.090;2023-04-21T05:41:03;101582.94;;;10.24;90.73
75692;BME280;64307;52.508;6.090;2023-04-21T05:43:28;101581.03;;;10.28;91.16
75692;BME280;64307;52.508;6.090;2023-04-21T05:46:07;101563.16;;;10.29;90.17
75692;BME280;64307;52.508;6.090;2023-04-21T05:48:33;101574.31;;;10.33;90.37
75692;BME280;64307;52.508;6.090;2023-04-21T05:51:13;101583.59;;;10.40;90.11
75692;BME280;64307;52.508;6.090;2023-04-21T05:53:42;101589.59;;;10.42;89.92
75692;BME280;64307;52.508;6.090;2023-04-21T05:56:09;101567.91;;;10.29;90.19
75692;BME280;64307;52.508;6.090;2023-04-21T05:58:35;101579.16;;;10.36;90.50
75692;BME280;64307;52.508;6.090;2023-04-21T06:01:09;101556.09;;;10.39;89.41
75692;BME280;64307;52.508;6.090;2023-04-21T06:03:35;101591.03;;;10.62;88.86
75692;BME280;64307;52.508;6.090;2023-04-21T06:06:02;101590.66;;;10.64;88.62
75692;BME280;64307;52.508;6.090;2023-04-21T06:08:27;101598.34;;;10.74;88.56
75692;BME280;64307;52.508;6.090;2023-04-21T06:10:52;101578.09;;;10.77;88.26
75692;BME280;64307;52.508;6.090;2023-04-21T06:13:18;101588.19;;;10.92;88.58
75692;BME280;64307;52.508;6.090;2023-04-21T06:15:43;101595.72;;;10.88;88.04
75692;BME280;64307;52.508;6.090;2023-04-21T06:18:08;101589.66;;;11.16;86.88
75692;BME280;64307;52.508;6.090;2023-04-21T06:20:33;101589.50;;;11.42;85.81
75692;BME280;64307;52.508;6.090;2023-04-21T06:22:59;101587.16;;;11.91;82.74
75692;BME280;64307;52.508;6.090;2023-04-21T06:25:24;101586.44;;;12.01;82.84
75692;BME280;64307;52.508;6.090;2023-04-21T06:27:49;101599.88;;;11.89;82.97
75692;BME280;64307;52.508;6.090;2023-04-21T06:30:15;101596.53;;;12.23;81.86
75692;BME280;64307;52.508;6.090;2023-04-21T06:32:41;101583.66;;;12.80;79.65
75692;BME280;64307;52.508;6.090;2023-04-21T06:35:08;101567.81;;;13.37;76.53
75692;BME280;64307;52.508;6.090;2023-04-21T06:37:33;101583.81;;;13.61;74.39
75692;BME280;64307;52.508;6.090;2023-04-21T06:40:02;101586.44;;;12.84;77.30
75692;BME280;64307;52.508;6.090;2023-04-21T06:42:27;101588.34;;;12.59;78.93
75692;BME280;64307;52.508;6.090;2023-04-21T06:44:52;101595.38;;;13.28;77.32
75692;BME280;64307;52.508;6.090;2023-04-21T06:47:19;101572.63;;;13.93;73.67
75692;BME280;64307;52.508;6.090;2023-04-21T06:49:44;101553.03;;;14.97;70.30
75692;BME280;64307;52.508;6.090;2023-04-21T06:52:11;101564.53;;;14.27;71.94
75692;BME280;64307;52.508;6.090;2023-04-21T06:54:36;101562.22;;;13.86;73.23
75692;BME280;64307;52.508;6.090;2023-04-21T06:57:03;101575.22;;;12.70;77.50
75692;BME280;64307;52.508;6.090;2023-04-21T06:59:28;101575.00;;;12.27;80.02
75692;BME280;64307;52.508;6.090;2023-04-21T07:01:53;101576.81;;;11.95;81.67
75692;BME280;64307;52.508;6.090;2023-04-21T07:04:18;101559.97;;;11.81;82.43
75692;BME280;64307;52.508;6.090;2023-04-21T07:06:44;101558.72;;;11.72;82.63
75692;BME280;64307;52.508;6.090;2023-04-21T07:09:10;101565.31;;;12.04;82.52
75692;BME280;64307;52.508;6.090;2023-04-21T07:11:35;101561.53;;;11.75;82.44
75692;BME280;64307;52.508;6.090;2023-04-21T07:14:00;101566.28;;;11.75;82.66
75692;BME280;64307;52.508;6.090;2023-04-21T07:16:27;101547.09;;;11.66;82.35
75692;BME280;64307;52.508;6.090;2023-04-21T07:18:52;101578.34;;;11.86;82.62
75692;BME280;64307;52.508;6.090;2023-04-21T07:21:17;101578.25;;;11.72;82.79
75692;BME280;64307;52.508;6.090;2023-04-21T07:23:43;101580.63;;;11.70;82.92
75692;BME280;64307;52.508;6.090;2023-04-21T07:26:08;101556.22;;;11.63;82.89
75692;BME280;64307;52.508;6.090;2023-04-21T07:28:33;101573.38;;;11.65;83.80
75692;BME280;64307;52.508;6.090;2023-04-21T07:30:59;101565.06;;;11.69;83.43
75692;BME280;64307;52.508;6.090;2023-04-21T07:33:24;101571.91;;;11.78;82.81
75692;BME280;64307;52.508;6.090;2023-04-21T07:35:49;101563.50;;;11.75;83.15
75692;BME280;64307;52.508;6.090;2023-04-21T07:38:14;101576.47;;;12.04;82.36
75692;BME280;64307;52.508;6.090;2023-04-21T07:40:40;101563.28;;;11.97;82.47
75692;BME280;64307;52.508;6.090;2023-04-21T07:43:05;101573.31;;;12.09;82.32
75692;BME280;64307;52.508;6.090;2023-04-21T07:45:30;101576.53;;;12.11;81.98
75692;BME280;64307;52.508;6.090;2023-04-21T07:47:55;101574.66;;;12.32;81.39
75692;BME280;64307;52.508;6.090;2023-04-21T07:50:21;101566.31;;;12.40;81.44
75692;BME280;64307;52.508;6.090;2023-04-21T07:52:46;101559.13;;;12.39;81.28
75692;BME280;64307;52.508;6.090;2023-04-21T07:55:12;101570.34;;;12.46;80.90
75692;BME280;64307;52.508;6.090;2023-04-21T07:57:37;101565.56;;;12.57;80.18
75692;BME280;64307;52.508;6.090;2023-04-21T08:00:05;101558.75;;;12.44;80.18
75692;BME280;64307;52.508;6.090;2023-04-21T08:02:30;101569.47;;;12.31;80.69
75692;BME280;64307;52.508;6.090;2023-04-21T08:04:56;101560.28;;;12.30;80.62
75692;BME280;64307;52.508;6.090;2023-04-21T08:07:21;101560.34;;;12.45;80.75
75692;BME280;64307;52.508;6.090;2023-04-21T08:09:46;101548.81;;;12.60;80.20
75692;BME280;64307;52.508;6.090;2023-04-21T08:12:11;101550.03;;;12.59;79.71
75692;BME280;64307;52.508;6.090;2023-04-21T08:14:38;101560.53;;;12.90;79.27
75692;BME280;64307;52.508;6.090;2023-04-21T08:17:04;101556.09;;;12.86;78.16
75692;BME280;64307;52.508;6.090;2023-04-21T08:19:29;101559.31;;;12.91;79.13
75692;BME280;64307;52.508;6.090;2023-04-21T08:21:55;101573.28;;;12.88;78.47
75692;BME280;64307;52.508;6.090;2023-04-21T08:24:21;101561.38;;;13.08;78.62
75692;BME280;64307;52.508;6.090;2023-04-21T08:26:46;101572.56;;;13.05;79.26
75692;BME280;64307;52.508;6.090;2023-04-21T08:29:12;101566.44;;;12.71;78.88
75692;BME280;64307;52.508;6.090;2023-04-21T08:31:38;101561.25;;;12.70;79.67
75692;BME280;64307;52.508;6.090;2023-04-21T08:34:03;101569.22;;;12.64;79.59
75692;BME280;64307;52.508;6.090;2023-04-21T08:36:29;101568.06;;;12.72;78.71
75692;BME280;64307;52.508;6.090;2023-04-21T08:38:54;101568.47;;;12.74;78.29
75692;BME280;64307;52.508;6.090;2023-04-21T08:41:20;101560.03;;;12.64;79.14
75692;BME280;64307;52.508;6.090;2023-04-21T08:43:46;101558.06;;;12.68;78.91
75692;BME280;64307;52.508;6.090;2023-04-21T08:46:11;101558.06;;;12.75;79.10
75692;BME280;64307;52.508;6.090;2023-04-21T08:48:37;101545.34;;;12.95;78.71
75692;BME280;64307;52.508;6.090;2023-04-21T08:51:05;101554.59;;;13.06;78.06
75692;BME280;64307;52.508;6.090;2023-04-21T08:53:31;101551.34;;;12.97;77.79
75692;BME280;64307;52.508;6.090;2023-04-21T08:55:56;101549.00;;;13.09;77.42
75692;BME280;64307;52.508;6.090;2023-04-21T08:58:22;101558.19;;;13.10;76.46
75692;BME280;64307;52.508;6.090;2023-04-21T09:00:48;101559.00;;;13.10;76.75
75692;BME280;64307;52.508;6.090;2023-04-21T09:03:20;101572.13;;;13.03;76.17
75692;BME280;64307;52.508;6.090;2023-04-21T09:05:59;101562.91;;;12.88;76.48
75692;BME280;64307;52.508;6.090;2023-04-21T09:08:24;101554.16;;;12.97;76.39
75692;BME280;64307;52.508;6.090;2023-04-21T09:10:51;101559.00;;;13.07;75.66
75692;BME280;64307;52.508;6.090;2023-04-21T09:13:19;101555.41;;;13.17;76.12
75692;BME280;64307;52.508;6.090;2023-04-21T09:19:13;101559.41;;;13.16;75.12
75692;BME280;64307;52.508;6.090;2023-04-21T09:21:43;101553.84;;;13.44;74.24
75692;BME280;64307;52.508;6.090;2023-04-21T09:24:08;101555.84;;;13.47;74.07
75692;BME280;64307;52.508;6.090;2023-04-21T09:26:35;101554.25;;;13.46;74.37
75692;BME280;64307;52.508;6.090;2023-04-21T09:29:04;101552.22;;;13.61;74.80
75692;BME280;64307;52.508;6.090;2023-04-21T09:31:36;101551.03;;;13.48;74.77
75692;BME280;64307;52.508;6.090;2023-04-21T09:37:13;101547.44;;;13.47;74.77
75692;BME280;64307;52.508;6.090;2023-04-21T09:39:43;101536.25;;;13.30;75.26
75692;BME280;64307;52.508;6.090;2023-04-21T09:42:10;101559.84;;;13.36;75.40
75692;BME280;64307;52.508;6.090;2023-04-21T09:44:35;101552.22;;;13.15;75.94
75692;BME280;64307;52.508;6.090;2023-04-21T09:47:03;101543.78;;;13.11;75.82
75692;BME280;64307;52.508;6.090;2023-04-21T09:49:30;101549.41;;;13.19;76.42
75692;BME280;64307;52.508;6.090;2023-04-21T09:51:58;101554.22;;;13.14;76.14
75692;BME280;64307;52.508;6.090;2023-04-21T09:54:29;101540.22;;;13.11;76.02
75692;BME280;64307;52.508;6.090;2023-04-21T09:56:55;101543.03;;;13.22;76.04
75692;BME280;64307;52.508;6.090;2023-04-21T09:59:29;101531.03;;;13.25;75.57
75692;BME280;64307;52.508;6.090;2023-04-21T10:01:57;101542.63;;;13.09;76.16
75692;BME280;64307;52.508;6.090;2023-04-21T10:04:24;101540.63;;;13.27;76.14
75692;BME280;64307;52.508;6.090;2023-04-21T10:06:50;101527.84;;;13.33;76.02
75692;BME280;64307;52.508;6.090;2023-04-21T10:09:17;101528.66;;;13.44;75.90
75692;BME280;64307;52.508;6.090;2023-04-21T10:11:45;101520.66;;;13.46;75.66
75692;BME280;64307;52.508;6.090;2023-04-21T10:14:10;101521.03;;;13.69;75.25
75692;BME280;64307;52.508;6.090;2023-04-21T10:16:36;101523.44;;;13.71;74.71
75692;BME280;64307;52.508;6.090;2023-04-21T10:19:30;101525.03;;;13.82;74.42
75692;BME280;64307;52.508;6.090;2023-04-21T10:22:00;101511.75;;;14.18;73.64
75692;BME280;64307;52.508;6.090;2023-04-21T10:24:29;101504.91;;;14.30;72.48
75692;BME280;64307;52.508;6.090;2023-04-21T10:26:56;101504.41;;;14.52;71.61
75692;BME280;64307;52.508;6.090;2023-04-21T10:29:31;101495.69;;;14.33;72.16
75692;BME280;64307;52.508;6.090;2023-04-21T10:31:57;101503.97;;;14.57;71.84
75692;BME280;64307;52.508;6.090;2023-04-21T10:34:36;101516.38;;;14.67;71.39
75692;BME280;64307;52.508;6.090;2023-04-21T10:39:52;101502.81;;;14.51;71.79
75692;BME280;64307;52.508;6.090;2023-04-21T10:42:21;101504.00;;;14.54;71.86
75692;BME280;64307;52.508;6.090;2023-04-21T10:47:36;101500.72;;;14.69;70.19
75692;BME280;64307;52.508;6.090;2023-04-21T10:50:29;101493.34;;;14.97;70.34
75692;BME280;64307;52.508;6.090;2023-04-21T10:53:09;101494.53;;;14.99;70.28
75692;BME280;64307;52.508;6.090;2023-04-21T10:55:35;101494.91;;;15.01;69.97
75692;BME280;64307;52.508;6.090;2023-04-21T10:58:03;101496.91;;;15.04;69.55
75692;BME280;64307;52.508;6.090;2023-04-21T11:00:29;101492.16;;;14.91;69.29
75692;BME280;64307;52.508;6.090;2023-04-21T11:02:56;101492.69;;;14.75;69.66
75692;BME280;64307;52.508;6.090;2023-04-21T11:05:38;101485.75;;;14.94;69.08
75692;BME280;64307;52.508;6.090;2023-04-21T11:08:05;101482.78;;;15.15;68.28
75692;BME280;64307;52.508;6.090;2023-04-21T11:13:47;101473.22;;;15.56;66.99
75692;BME280;64307;52.508;6.090;2023-04-21T11:16:46;101481.22;;;15.62;67.40
75692;BME280;64307;52.508;6.090;2023-04-21T11:19:14;101478.09;;;15.52;68.53
75692;BME280;64307;52.508;6.090;2023-04-21T11:21:39;101483.56;;;15.15;69.18
75692;BME280;64307;52.508;6.090;2023-04-21T11:24:07;101479.22;;;15.07;69.74
75692;BME280;64307;52.508;6.090;2023-04-21T11:26:35;101468.44;;;15.06;69.54
75692;BME280;64307;52.508;6.090;2023-04-21T11:29:03;101473.31;;;14.98;70.29
75692;BME280;64307;52.508;6.090;2023-04-21T11:31:30;101473.69;;;14.97;70.97
75692;BME280;64307;52.508;6.090;2023-04-21T11:33:57;101470.56;;;14.88;71.33
75692;BME280;64307;52.508;6.090;2023-04-21T11:36:23;101462.63;;;14.79;71.90
75692;BME280;64307;52.508;6.090;2023-04-21T11:38:48;101466.13;;;14.90;72.68
75692;BME280;64307;52.508;6.090;2023-04-21T11:41:24;101457.75;;;14.87;74.07
75692;BME280;64307;52.508;6.090;2023-04-21T11:43:55;101465.03;;;14.77;73.47
75692;BME280;64307;52.508;6.090;2023-04-21T11:46:48;101467.28;;;14.31;76.47
75692;BME280;64307;52.508;6.090;2023-04-21T11:49:14;101465.72;;;14.16;77.90
75692;BME280;64307;52.508;6.090;2023-04-21T11:51:42;101459.75;;;14.07;78.31
75692;BME280;64307;52.508;6.090;2023-04-21T11:54:10;101454.19;;;14.00;79.02
75692;BME280;64307;52.508;6.090;2023-04-21T11:56:40;101461.75;;;14.03;79.43
75692;BME280;64307;52.508;6.090;2023-04-21T12:02:30;101458.25;;;13.70;80.58
75692;BME280;64307;52.508;6.090;2023-04-21T12:08:17;101445.41;;;13.83;79.45
75692;BME280;64307;52.508;6.090;2023-04-21T12:10:45;101450.66;;;13.74;80.11
75692;BME280;64307;52.508;6.090;2023-04-21T12:13:32;101449.00;;;13.91;81.36
75692;BME280;64307;52.508;6.090;2023-04-21T12:16:01;101446.25;;;13.77;81.54
75692;BME280;64307;52.508;6.090;2023-04-21T12:18:27;101442.22;;;13.85;81.93
75692;BME280;64307;52.508;6.090;2023-04-21T12:20:52;101424.25;;;13.79;82.98
75692;BME280;64307;52.508;6.090;2023-04-21T12:23:18;101424.63;;;13.81;82.75
75692;BME280;64307;52.508;6.090;2023-04-21T12:25:45;101419.78;;;13.92;83.07
75692;BME280;64307;52.508;6.090;2023-04-21T12:28:12;101417.72;;;14.07;83.04
75692;BME280;64307;52.508;6.090;2023-04-21T12:30:39;101410.94;;;14.04;82.55
75692;BME280;64307;52.508;6.090;2023-04-21T12:33:05;101405.34;;;14.01;84.15
75692;BME280;64307;52.508;6.090;2023-04-21T12:38:52;101397.28;;;14.17;83.51
75692;BME280;64307;52.508;6.090;2023-04-21T12:41:17;101392.19;;;13.98;83.61
75692;BME280;64307;52.508;6.090;2023-04-21T12:43:42;101392.50;;;14.14;83.56
75692;BME280;64307;52.508;6.090;2023-04-21T12:46:08;101384.44;;;14.23;82.83
75692;BME280;64307;52.508;6.090;2023-04-21T12:48:33;101379.22;;;14.32;82.92
75692;BME280;64307;52.508;6.090;2023-04-21T12:50:58;101366.69;;;14.50;81.50
75692;BME280;64307;52.508;6.090;2023-04-21T12:53:24;101374.56;;;14.69;81.27
75692;BME280;64307;52.508;6.090;2023-04-21T12:55:49;101360.94;;;15.16;80.23
75692;BME280;64307;52.508;6.090;2023-04-21T12:58:15;101356.81;;;14.83;79.51
75692;BME280;64307;52.508;6.090;2023-04-21T13:00:40;101368.34;;;14.96;80.21
75692;BME280;64307;52.508;6.090;2023-04-21T13:03:06;101360.78;;;14.89;79.64
75692;BME280;64307;52.508;6.090;2023-04-21T13:05:32;101356.25;;;14.99;77.72
75692;BME280;64307;52.508;6.090;2023-04-21T13:07:57;101354.88;;;15.21;78.12
75692;BME280;64307;52.508;6.090;2023-04-21T13:10:22;101347.50;;;15.34;77.48
75692;BME280;64307;52.508;6.090;2023-04-21T13:12:49;101360.22;;;15.49;77.01
75692;BME280;64307;52.508;6.090;2023-04-21T13:15:14;101347.34;;;15.51;75.85